Time;durP1;ratioP1;P1;durP2;ratioP2;P2;SDS_P1;SDS_P2;PMS_P1;PMS_P2;Temp;Humidity;BMP_temperature;BMP_pressure;BME280_temperature;BME280_humidity;BME280_pressure;Samples;Min_cycle;Max_cycle;Signal;HPM_P1;HPM_P2
2022/04/11 00:00:32;;;;;;;;;;;;;;;1.75;100.00;102060.44;4921173;29;20046;-78
2022/04/11 00:03:00;;;;;;;5.15;3.28;;;;;;;1.72;100.00;102052.44;4934233;29;19929;-78
2022/04/11 00:05:29;;;;;;;5.95;3.35;;;;;;;1.70;100.00;102056.66;4904631;29;20032;-77
2022/04/11 00:07:58;;;;;;;6.72;2.95;;;;;;;1.66;100.00;102055.56;4938241;28;20059;-77
2022/04/11 00:10:26;;;;;;;3.03;2.72;;;;;;;1.63;100.00;102059.72;4929389;28;20047;-77
2022/04/11 00:13:05;;;;;;;5.40;2.92;;;;;;;1.59;100.00;102062.91;4913960;28;20043;-77
2022/04/11 00:15:39;;;;;;;6.47;3.30;;;;;;;1.54;100.00;102055.75;4946102;28;20166;-77
2022/04/11 00:18:08;;;;;;;3.55;2.90;;;;;;;1.51;100.00;102058.19;4931842;29;20062;-78
2022/04/11 00:20:37;;;;;;;6.57;3.42;;;;;;;1.50;100.00;102060.69;4922796;29;20146;-77
2022/04/11 00:23:06;;;;;;;3.75;2.63;;;;;;;1.46;100.00;102056.13;4956354;28;20043;-77
2022/04/11 00:25:34;;;;;;;4.32;2.80;;;;;;;1.42;100.00;102057.66;4938576;28;20054;-77
2022/04/11 00:28:03;;;;;;;5.10;3.10;;;;;;;1.40;100.00;102056.66;4908277;29;20039;-77
2022/04/11 00:30:32;;;;;;;4.57;3.05;;;;;;;1.40;100.00;102063.53;4928836;29;20157;-78
2022/04/11 00:33:01;;;;;;;8.63;2.92;;;;;;;1.38;100.00;102066.06;4933877;29;20059;-77
2022/04/11 00:35:29;;;;;;;3.25;2.92;;;;;;;1.38;100.00;102057.34;4937554;28;20269;-77
2022/04/11 00:37:58;;;;;;;3.60;3.00;;;;;;;1.39;100.00;102052.25;4916173;29;20046;-77
2022/04/11 00:40:27;;;;;;;4.22;2.90;;;;;;;1.38;100.00;102049.56;4891173;29;20258;-77
2022/04/11 00:42:55;;;;;;;4.38;3.10;;;;;;;1.38;100.00;102050.47;4924186;28;20047;-77
2022/04/11 00:45:24;;;;;;;3.70;3.00;;;;;;;1.36;100.00;102036.47;4928405;28;20721;-77
2022/04/11 00:47:52;;;;;;;4.13;2.97;;;;;;;1.33;100.00;102041.50;4947534;29;20043;-77
2022/04/11 00:50:21;;;;;;;6.53;3.33;;;;;;;1.31;100.00;102046.59;4940136;28;20054;-77
2022/04/11 00:52:53;;;;;;;5.53;3.07;;;;;;;1.29;100.00;102045.63;4929381;29;20059;-78
2022/04/11 00:55:24;;;;;;;4.68;3.30;;;;;;;1.28;100.00;102035.13;4928095;28;20062;-77
2022/04/11 00:57:53;;;;;;;5.95;3.00;;;;;;;1.25;100.00;102030.66;4925568;28;20441;-77
2022/04/11 01:00:22;;;;;;;2.92;2.70;;;;;;;1.24;100.00;102027.97;4944458;28;20035;-77
2022/04/11 01:02:50;;;;;;;5.70;2.80;;;;;;;1.21;100.00;102022.56;4927825;29;20044;-77
2022/04/11 01:05:19;;;;;;;6.03;3.58;;;;;;;1.18;100.00;102031.09;4929696;29;20035;-77
2022/04/11 01:07:48;;;;;;;4.18;3.10;;;;;;;1.15;100.00;102030.88;4932310;28;20052;-76
2022/04/11 01:10:17;;;;;;;4.95;3.10;;;;;;;1.12;100.00;102034.22;4931861;28;20050;-76
2022/04/11 01:12:46;;;;;;;7.03;3.22;;;;;;;1.10;100.00;102035.81;4919166;29;20429;-76
2022/04/11 01:15:16;;;;;;;5.90;2.90;;;;;;;1.08;100.00;102029.66;4901408;29;20047;-76
2022/04/11 01:17:46;;;;;;;5.07;2.80;;;;;;;1.03;100.00;102027.56;4917115;28;20567;-76
2022/04/11 01:20:16;;;;;;;9.27;3.22;;;;;;;1.02;100.00;102029.28;4929531;29;20043;-76
2022/04/11 01:22:45;;;;;;;3.30;2.58;;;;;;;1.01;100.00;102035.25;4924507;28;20441;-77
2022/04/11 01:25:14;;;;;;;3.97;2.85;;;;;;;1.00;100.00;102036.03;4936620;28;20404;-77
2022/04/11 01:27:45;;;;;;;5.22;3.30;;;;;;;1.00;100.00;102029.97;4943150;28;20036;-76
2022/04/11 01:30:16;;;;;;;4.45;3.20;;;;;;;1.01;100.00;102021.38;4920683;28;20043;-77
2022/04/11 01:32:47;;;;;;;6.40;3.38;;;;;;;1.01;100.00;102030.06;4946782;28;20050;-77
2022/04/11 01:35:26;;;;;;;3.30;3.00;;;;;;;0.99;100.00;102026.47;4927677;29;20044;-77
2022/04/11 01:38:01;;;;;;;3.40;3.13;;;;;;;0.95;100.00;102029.69;4944737;28;20047;-77
2022/04/11 01:40:29;;;;;;;3.40;2.83;;;;;;;0.93;100.00;102029.59;4941061;28;20043;-77
2022/04/11 01:42:58;;;;;;;4.57;3.42;;;;;;;0.92;100.00;102032.97;4941477;28;20058;-76
2022/04/11 01:45:26;;;;;;;6.07;2.97;;;;;;;0.88;100.00;102019.75;4886975;29;20655;-77
2022/04/11 01:47:56;;;;;;;6.32;3.25;;;;;;;0.86;100.00;102023.94;4948200;28;20043;-77
2022/04/11 01:50:25;;;;;;;5.78;3.45;;;;;;;0.82;100.00;102019.38;4928085;29;20281;-77
2022/04/11 01:53:05;;;;;;;3.15;2.83;;;;;;;0.79;100.00;102030.44;4947394;29;20039;-77
2022/04/11 01:55:34;;;;;;;4.85;3.60;;;;;;;0.76;100.00;102025.09;4934535;28;20054;-77
2022/04/11 01:58:04;;;;;;;3.47;3.17;;;;;;;0.74;100.00;102032.75;4943087;28;20521;-77
2022/04/11 02:00:34;;;;;;;3.50;2.90;;;;;;;0.74;100.00;102024.09;4908642;28;21436;-76
2022/04/11 02:03:04;;;;;;;3.65;2.60;;;;;;;0.72;100.00;102026.59;4929561;29;20051;-77
2022/04/11 02:05:34;;;;;;;5.43;3.10;;;;;;;0.68;100.00;102028.88;4956626;28;20036;-77
2022/04/11 02:08:06;;;;;;;7.30;3.30;;;;;;;0.68;100.00;102034.06;4942352;28;20051;-77
2022/04/11 02:10:35;;;;;;;7.75;3.55;;;;;;;0.66;100.00;102031.41;4917050;28;20043;-77
2022/04/11 02:13:06;;;;;;;3.55;3.20;;;;;;;0.66;100.00;102027.88;4940695;28;20051;-77
2022/04/11 02:15:34;;;;;;;5.07;3.33;;;;;;;0.64;100.00;102025.19;4923725;28;20102;-77
2022/04/11 02:18:03;;;;;;;7.28;3.15;;;;;;;0.64;100.00;102032.09;4966376;28;20058;-77
2022/04/11 02:20:32;;;;;;;5.35;3.17;;;;;;;0.62;100.00;102026.78;4912168;28;20058;-77
2022/04/11 02:23:00;;;;;;;5.43;3.40;;;;;;;0.64;100.00;102034.69;4913480;29;20050;-77
2022/04/11 02:25:32;;;;;;;4.00;3.45;;;;;;;0.63;100.00;102027.72;4943282;29;20270;-77
2022/04/11 02:28:02;;;;;;;4.78;3.35;;;;;;;0.61;100.00;102035.41;4930212;28;20415;-77
2022/04/11 02:30:31;;;;;;;4.72;3.50;;;;;;;0.60;100.00;102032.69;4925675;29;20058;-77
2022/04/11 02:32:59;;;;;;;4.00;3.10;;;;;;;0.59;100.00;102037.00;4922424;28;20035;-77
2022/04/11 02:35:28;;;;;;;3.58;3.03;;;;;;;0.57;100.00;102036.00;4942554;28;20043;-77
2022/04/11 02:37:57;;;;;;;3.90;3.25;;;;;;;0.54;100.00;102035.81;4948342;28;20051;-77
2022/04/11 02:40:26;;;;;;;6.97;3.60;;;;;;;0.53;100.00;102032.31;4942545;29;20274;-77
2022/04/11 02:43:20;;;;;;;4.88;3.72;;;;;;;0.52;100.00;102029.63;4932990;28;20054;-76
2022/04/11 02:45:59;;;;;;;3.35;3.08;;;;;;;0.50;100.00;102024.34;4946098;29;20047;-76
2022/04/11 02:48:36;;;;;;;5.18;3.15;;;;;;;0.49;100.00;102026.84;4912392;29;20046;-76
2022/04/11 02:51:10;;;;;;;7.60;3.30;;;;;;;0.48;100.00;102023.34;4930025;28;20062;-76
2022/04/11 02:53:44;;;;;;;7.40;3.58;;;;;;;0.47;100.00;102018.94;4911790;29;20520;-77
2022/04/11 02:56:13;;;;;;;5.15;3.55;;;;;;;0.46;100.00;102024.97;4926731;29;20528;-76
2022/04/11 02:58:42;;;;;;;5.93;3.10;;;;;;;0.47;100.00;102016.34;4903044;28;20272;-77
2022/04/11 03:01:11;;;;;;;5.18;3.25;;;;;;;0.46;100.00;102018.88;4928129;29;20043;-77
2022/04/11 03:03:42;;;;;;;4.65;3.28;;;;;;;0.45;100.00;102024.84;4913558;28;20683;-76
2022/04/11 03:06:12;;;;;;;2.50;2.30;;;;;;;0.43;100.00;102029.03;4929333;29;20048;-77
2022/04/11 03:08:43;;;;;;;3.95;3.22;;;;;;;0.41;100.00;102020.28;4945162;29;20302;-77
2022/04/11 03:11:16;;;;;;;4.90;3.33;;;;;;;0.39;100.00;102022.75;4929011;29;20043;-77
2022/04/11 03:13:48;;;;;;;4.93;3.25;;;;;;;0.36;100.00;102026.06;4921078;28;20054;-77
2022/04/11 03:16:18;;;;;;;4.70;3.65;;;;;;;0.36;100.00;102027.78;4927932;29;20055;-77
2022/04/11 03:18:48;;;;;;;6.57;3.67;;;;;;;0.36;100.00;102017.41;4907470;28;20058;-77
2022/04/11 03:21:17;;;;;;;4.57;3.63;;;;;;;0.33;100.00;102012.91;4942777;29;20058;-77
2022/04/11 03:23:53;;;;;;;5.85;3.83;;;;;;;0.33;100.00;102010.31;4930284;29;20054;-77
2022/04/11 03:26:21;;;;;;;8.32;4.50;;;;;;;0.31;100.00;102009.31;4931123;28;20048;-77
2022/04/11 03:28:50;;;;;;;5.40;3.63;;;;;;;0.31;100.00;102009.31;4902404;29;20051;-77
2022/04/11 03:31:20;;;;;;;5.22;3.45;;;;;;;0.30;100.00;102017.00;4941911;29;20043;-77
2022/04/11 03:33:49;;;;;;;7.03;3.35;;;;;;;0.29;100.00;102017.81;4929043;29;20043;-77
2022/04/11 03:36:18;;;;;;;5.30;3.63;;;;;;;0.30;100.00;102012.72;4902711;29;20054;-77
2022/04/11 03:38:48;;;;;;;5.90;3.88;;;;;;;0.32;100.00;102018.91;4945412;29;20059;-77
2022/04/11 03:41:19;;;;;;;6.13;3.97;;;;;;;0.34;100.00;102014.72;4943016;28;20039;-77
2022/04/11 03:43:48;;;;;;;3.90;3.00;;;;;;;0.34;100.00;102019.91;4923845;28;20076;-78
2022/04/11 03:46:16;;;;;;;5.07;3.13;;;;;;;0.36;100.00;102017.41;4947053;28;20054;-76
2022/04/11 03:48:48;;;;;;;3.70;3.40;;;;;;;0.36;100.00;102017.41;4947804;28;20047;-76
2022/04/11 03:51:17;;;;;;;7.38;3.70;;;;;;;0.37;100.00;102022.66;4924271;28;20062;-76
2022/04/11 03:53:50;;;;;;;5.40;3.17;;;;;;;0.38;100.00;102019.28;4949210;28;20058;-78
2022/04/11 03:56:18;;;;;;;4.13;3.72;;;;;;;0.41;100.00;102017.69;4961883;28;20062;-76
2022/04/11 03:58:47;;;;;;;4.82;3.85;;;;;;;0.43;100.00;102013.47;4948522;29;20051;-76
2022/04/11 04:01:18;;;;;;;4.35;3.95;;;;;;;0.45;100.00;102006.69;4923629;29;20066;-76
2022/04/11 04:03:48;;;;;;;4.85;3.70;;;;;;;0.50;100.00;102016.56;4936471;29;20052;-77
2022/04/11 04:06:20;;;;;;;4.00;3.22;;;;;;;0.53;100.00;102013.25;4897753;29;20054;-76
2022/04/11 04:08:48;;;;;;;4.55;3.38;;;;;;;0.58;100.00;102015.31;4913447;29;20052;-76
2022/04/11 04:11:27;;;;;;;5.35;4.10;;;;;;;0.61;100.00;102017.25;4930244;29;20066;-76
2022/04/11 04:14:17;;;;;;;5.70;4.28;;;;;;;0.66;100.00;102014.91;4926907;29;20059;-76
2022/04/11 04:16:50;;;;;;;4.13;3.75;;;;;;;0.69;100.00;102018.59;4928112;28;20524;-76
2022/04/11 04:19:25;;;;;;;5.22;3.90;;;;;;;0.73;100.00;102015.38;4940931;29;20754;-76
2022/04/11 04:21:55;;;;;;;11.00;3.63;;;;;;;0.78;100.00;102008.78;4923208;28;20039;-77
2022/04/11 04:24:24;;;;;;;5.95;3.47;;;;;;;0.82;100.00;102019.38;4945197;28;20047;-77
2022/04/11 04:26:57;;;;;;;4.65;3.75;;;;;;;0.87;100.00;102023.13;4946459;28;20051;-77
2022/04/11 04:29:27;;;;;;;7.15;3.60;;;;;;;0.91;100.00;102004.38;4940398;28;20281;-77
2022/04/11 04:31:56;;;;;;;4.05;3.20;;;;;;;0.95;100.00;102006.34;4913576;29;20031;-77
2022/04/11 04:34:26;;;;;;;5.38;3.88;;;;;;;0.97;100.00;102012.53;4945171;29;20265;-78
2022/04/11 04:36:56;;;;;;;5.43;3.72;;;;;;;1.00;100.00;102017.88;4922524;28;20409;-77
2022/04/11 04:39:25;;;;;;;3.55;3.17;;;;;;;1.05;100.00;102016.47;4924123;29;20066;-77
2022/04/11 04:41:54;;;;;;;5.43;3.70;;;;;;;1.07;100.00;102007.06;4921923;29;20055;-77
2022/04/11 04:44:25;;;;;;;6.18;3.70;;;;;;;1.08;100.00;102003.69;4944200;28;20261;-77
2022/04/11 04:46:58;;;;;;;6.10;3.72;;;;;;;1.11;100.00;102013.34;4934440;28;20039;-77
2022/04/11 04:49:37;;;;;;;8.25;5.03;;;;;;;1.15;100.00;102015.31;4917119;29;20058;-77
2022/04/11 04:52:09;;;;;;;6.47;4.95;;;;;;;1.19;100.00;102013.81;4904046;28;20062;-77
2022/04/11 04:54:50;;;;;;;5.05;3.97;;;;;;;1.22;100.00;102011.41;4933678;29;20048;-77
2022/04/11 04:57:18;;;;;;;6.40;4.07;;;;;;;1.22;100.00;102001.91;4945176;29;20131;-77
2022/04/11 04:59:47;;;;;;;8.48;3.50;;;;;;;1.27;100.00;102004.78;4932403;29;20047;-77
2022/04/11 05:02:22;;;;;;;5.32;3.95;;;;;;;1.30;100.00;102000.63;4920911;29;20035;-77
2022/04/11 05:04:53;;;;;;;5.47;3.85;;;;;;;1.34;100.00;101997.44;4949754;28;20527;-77
2022/04/11 05:07:23;;;;;;;4.20;3.30;;;;;;;1.38;100.00;102001.13;4921001;28;20055;-77
2022/04/11 05:09:51;;;;;;;5.40;3.53;;;;;;;1.42;100.00;102005.69;4932550;29;20302;-77
2022/04/11 05:12:19;;;;;;;4.20;3.58;;;;;;;1.45;100.00;102000.66;4929976;29;20055;-77
2022/04/11 05:14:49;;;;;;;6.72;3.95;;;;;;;1.49;100.00;101994.84;4929179;29;20046;-78
2022/04/11 05:17:18;;;;;;;4.32;3.22;;;;;;;1.55;100.00;102000.41;4921992;28;20428;-77
2022/04/11 05:19:47;;;;;;;5.22;3.15;;;;;;;1.58;100.00;102002.28;4945791;28;20043;-77
2022/04/11 05:22:17;;;;;;;5.97;3.90;;;;;;;1.60;100.00;102000.66;4924348;28;20043;-77
2022/04/11 05:24:46;;;;;;;5.28;4.10;;;;;;;1.64;100.00;102005.22;4947859;28;20058;-77
2022/04/11 05:27:14;;;;;;;5.03;3.83;;;;;;;1.69;100.00;101992.50;4929760;29;20045;-77
2022/04/11 05:29:43;;;;;;;6.95;4.18;;;;;;;1.74;100.00;101998.88;4929577;29;20035;-77
2022/04/11 05:32:12;;;;;;;7.78;3.97;;;;;;;1.79;100.00;102001.72;4929223;29;20713;-76
2022/04/11 05:34:40;;;;;;;5.90;4.20;;;;;;;1.83;100.00;102001.97;4906210;29;20058;-78
2022/04/11 05:37:11;;;;;;;4.32;3.65;;;;;;;1.89;100.00;102004.94;4900792;29;20477;-77
2022/04/11 05:39:41;;;;;;;7.72;4.10;;;;;;;1.94;100.00;101995.69;4932837;28;20035;-77
2022/04/11 05:42:09;;;;;;;10.73;7.05;;;;;;;2.00;100.00;101995.13;4909805;28;20050;-77
2022/04/11 05:44:41;;;;;;;16.02;7.85;;;;;;;2.05;100.00;102001.50;4920975;28;20165;-77
2022/04/11 05:47:09;;;;;;;10.25;5.57;;;;;;;2.11;100.00;102006.16;4924165;29;20043;-77
2022/04/11 05:49:46;;;;;;;7.97;4.95;;;;;;;2.14;100.00;102007.22;4920456;28;20524;-77
2022/04/11 05:52:18;;;;;;;6.45;4.47;;;;;;;2.20;100.00;102004.06;4949290;29;20524;-77
2022/04/11 05:54:47;;;;;;;8.35;3.70;;;;;;;2.27;100.00;102011.41;4921445;28;20499;-77
2022/04/11 05:57:16;;;;;;;7.65;3.92;;;;;;;2.31;100.00;102010.75;4924307;29;20047;-77
2022/04/11 05:59:46;;;;;;;7.50;3.70;;;;;;;2.35;100.00;102011.81;4944791;29;20646;-77
2022/04/11 06:02:15;;;;;;;5.50;3.92;;;;;;;2.40;100.00;102006.88;4920535;29;20035;-77
2022/04/11 06:04:44;;;;;;;8.40;3.72;;;;;;;2.45;100.00;102013.22;4923644;28;20074;-77
2022/04/11 06:07:12;;;;;;;6.38;3.20;;;;;;;2.49;100.00;102016.06;4928805;29;20058;-77
2022/04/11 06:09:42;;;;;;;3.08;2.78;;;;;;;2.53;100.00;102011.91;4905043;29;20138;-78
2022/04/11 06:12:17;;;;;;;7.43;3.60;;;;;;;2.55;100.00;102007.69;4915301;29;20047;-78
2022/04/11 06:14:50;;;;;;;4.45;2.80;;;;;;;2.57;100.00;102002.56;4941529;29;20047;-77
2022/04/11 06:17:23;;;;;;;5.35;3.25;;;;;;;2.60;100.00;102006.25;4932813;28;20051;-77
2022/04/11 06:19:53;;;;;;;10.32;3.60;;;;;;;2.65;100.00;102010.00;4931450;28;20562;-77
2022/04/11 06:22:23;;;;;;;10.70;6.40;;;;;;;2.70;100.00;102008.56;4925278;28;20059;-77
2022/04/11 06:25:03;;;;;;;8.00;5.47;;;;;;;2.76;100.00;102013.19;4901954;29;20058;-77
2022/04/11 06:27:33;;;;;;;5.60;3.90;;;;;;;2.83;100.00;102022.22;4909841;28;20268;-76
2022/04/11 06:30:04;;;;;;;7.07;3.60;;;;;;;2.87;100.00;102011.13;4929857;29;20035;-77
2022/04/11 06:32:35;;;;;;;5.70;3.47;;;;;;;2.92;100.00;102010.56;4919719;29;20042;-76
2022/04/11 06:35:04;;;;;;;4.68;3.50;;;;;;;2.98;100.00;102009.13;4912715;29;20043;-78
2022/04/11 06:37:33;;;;;;;8.23;4.43;;;;;;;3.04;100.00;102007.69;4932973;28;20677;-78
2022/04/11 06:40:02;;;;;;;7.45;4.05;;;;;;;3.11;100.00;102001.13;4924515;28;20042;-77
2022/04/11 06:42:33;;;;;;;11.02;4.25;;;;;;;3.16;100.00;101997.06;4919379;28;20270;-75
2022/04/11 06:45:08;;;;;;;9.95;4.10;;;;;;;3.23;100.00;102006.97;4933106;29;20500;-76
2022/04/11 06:47:38;;;;;;;4.88;3.50;;;;;;;3.30;100.00;102005.56;4944487;28;20043;-76
2022/04/11 06:50:08;;;;;;;9.00;3.90;;;;;;;3.37;100.00;102010.28;4904706;28;20397;-75
2022/04/11 06:52:37;;;;;;;6.88;3.67;;;;;;;3.44;100.00;102019.28;4934201;28;20043;-76
2022/04/11 06:55:06;;;;;;;7.20;4.20;;;;;;;3.51;100.00;102016.19;4922923;28;20416;-76
2022/04/11 06:57:35;;;;;;;8.03;4.40;;;;;;;3.59;100.00;102011.34;4935964;28;20287;-77
2022/04/11 07:00:05;;;;;;;9.93;4.15;;;;;;;3.67;100.00;102012.66;4921216;29;20656;-77
2022/04/11 07:02:33;;;;;;;9.95;4.47;;;;;;;3.76;100.00;102004.38;4918823;29;20047;-76
2022/04/11 07:05:02;;;;;;;8.07;4.00;;;;;;;3.84;100.00;102009.16;4936906;28;20046;-77
2022/04/11 07:07:31;;;;;;;10.10;4.15;;;;;;;3.92;100.00;102009.53;4938641;28;21376;-76
2022/04/11 07:10:00;;;;;;;9.18;3.85;;;;;;;4.00;100.00;102007.31;4930579;28;20043;-76
2022/04/11 07:12:29;;;;;;;12.07;6.07;;;;;;;4.07;100.00;102009.41;4906040;28;20066;-77
2022/04/11 07:15:02;;;;;;;12.40;5.05;;;;;;;4.16;100.00;102020.28;4960921;28;20052;-77
2022/04/11 07:17:31;;;;;;;10.68;2.22;;;;;;;4.25;100.00;102020.72;4973644;28;20699;-77
2022/04/11 07:20:01;;;;;;;8.60;3.03;;;;;;;4.34;100.00;102022.84;4947602;28;20062;-77
2022/04/11 07:22:29;;;;;;;11.23;3.00;;;;;;;4.47;100.00;102024.34;4936282;28;20252;-76
2022/04/11 07:24:59;;;;;;;8.63;2.78;;;;;;;4.59;100.00;102027.50;4919978;28;20055;-76
2022/04/11 07:27:27;;;;;;;18.20;3.33;;;;;;;4.72;100.00;102022.84;4906715;29;20051;-77
2022/04/11 07:29:56;;;;;;;11.23;2.70;;;;;;;4.85;100.00;102018.25;4935106;28;20044;-77
2022/04/11 07:32:24;;;;;;;6.35;2.15;;;;;;;4.99;100.00;102026.72;4916954;29;20078;-76
2022/04/11 07:34:53;;;;;;;5.88;2.45;;;;;;;5.14;100.00;102028.22;4948415;28;20408;-77
2022/04/11 07:37:22;;;;;;;10.45;2.33;;;;;;;5.27;100.00;102015.78;4931615;28;20054;-77
2022/04/11 07:39:50;;;;;;;8.68;2.88;;;;;;;5.42;100.00;102015.53;4939839;28;20069;-76
2022/04/11 07:42:20;;;;;;;5.65;2.47;;;;;;;5.60;100.00;102017.16;4916886;28;20063;-77
2022/04/11 07:44:49;;;;;;;5.68;2.22;;;;;;;5.78;100.00;102014.41;4922456;28;20047;-77
2022/04/11 07:47:19;;;;;;;4.37;1.93;;;;;;;5.98;100.00;102013.53;4942034;28;20280;-78
2022/04/11 07:49:47;;;;;;;6.03;1.70;;;;;;;6.18;100.00;102014.34;4917420;29;20051;-77
2022/04/11 07:52:16;;;;;;;3.13;1.90;;;;;;;6.35;100.00;102020.25;4903801;28;20524;-77
2022/04/11 07:54:45;;;;;;;4.00;2.08;;;;;;;6.48;100.00;102024.22;4931224;28;20043;-77
2022/04/11 07:57:13;;;;;;;5.13;1.90;;;;;;;6.63;100.00;102021.28;4944861;28;20333;-77
2022/04/11 08:00:06;;;;;;;4.95;2.00;;;;;;;6.77;100.00;102029.69;4901361;28;20052;-76
2022/04/11 08:02:39;;;;;;;6.72;2.50;;;;;;;6.90;100.00;102031.94;4937035;28;20046;-77
2022/04/11 08:05:09;;;;;;;6.10;2.17;;;;;;;7.03;100.00;102031.56;4933813;28;20455;-76
2022/04/11 08:07:38;;;;;;;3.50;1.83;;;;;;;7.19;100.00;102021.63;4946355;28;20106;-77
2022/04/11 08:10:07;;;;;;;2.05;1.35;;;;;;;7.33;100.00;102015.09;4924023;28;20055;-77
2022/04/11 08:12:35;;;;;;;3.95;1.60;;;;;;;7.45;100.00;102026.88;4957681;28;20269;-77
2022/04/11 08:15:06;;;;;;;6.63;2.13;;;;;;;7.54;100.00;102017.63;4900435;29;20601;-77
2022/04/11 08:17:36;;;;;;;5.22;1.75;;;;;;;7.63;100.00;102017.03;4934680;28;20412;-77
2022/04/11 08:20:06;;;;;;;;;;;;;;;7.70;100.00;102013.78;4930088;28;20572;-77
2022/04/11 08:22:35;;;;;;;7.75;1.90;;;;;;;7.78;100.00;102014.91;4943231;28;19926;-77
2022/04/11 08:25:05;;;;;;;7.78;2.63;;;;;;;7.90;100.00;102019.69;4933704;28;20055;-77
2022/04/11 08:27:37;;;;;;;7.78;2.80;;;;;;;8.05;100.00;102008.78;4940550;28;20052;-77
2022/04/11 08:30:07;;;;;;;8.13;1.92;;;;;;;8.24;100.00;102010.28;4915903;28;20553;-76
2022/04/11 08:32:47;;;;;;;4.63;1.92;;;;;;;8.46;100.00;102008.34;4931129;28;20402;-77
2022/04/11 08:35:21;;;;;;;6.90;2.05;;;;;;;8.73;100.00;102013.50;4922681;28;20056;-78
2022/04/11 08:37:50;;;;;;;3.63;1.98;;;;;;;8.91;100.00;101998.28;4953949;28;20051;-77
2022/04/11 08:40:19;;;;;;;4.22;1.80;;;;;;;9.10;100.00;101998.81;4930153;28;20284;-77
2022/04/11 08:42:49;;;;;;;7.47;1.92;;;;;;;9.24;98.39;102012.31;4932498;29;20042;-79
2022/04/11 08:45:20;;;;;;;;;;;;;;;9.34;90.17;102004.72;4909334;28;20277;-79
2022/04/11 08:47:50;;;;;;;3.85;1.85;;;;;;;9.51;96.33;101999.03;4932573;28;19930;-79
2022/04/11 08:50:19;;;;;;;5.97;2.45;;;;;;;9.69;96.54;102001.22;4929216;28;20432;-79
2022/04/11 08:52:52;;;;;;;1.67;1.10;;;;;;;9.95;94.61;101999.25;4929360;29;20494;-79
2022/04/11 08:55:24;;;;;;;2.47;1.25;;;;;;;10.20;91.75;102003.34;4939617;28;20592;-79
2022/04/11 08:57:59;;;;;;;4.53;2.03;;;;;;;10.38;88.19;101996.72;4933776;28;20055;-79
2022/04/11 09:00:54;;;;;;;6.18;2.70;;;;;;;10.49;89.05;101998.78;4922420;28;20535;-79
2022/04/11 09:03:32;;;;;;;3.70;1.85;;;;;;;10.56;86.32;101997.13;4918756;28;20054;-79
2022/04/11 09:06:06;;;;;;;6.70;1.88;;;;;;;10.63;85.75;102000.81;4902083;29;20517;-79
2022/04/11 09:08:48;;;;;;;2.22;1.65;;;;;;;10.67;82.99;102002.66;4899348;29;20063;-81
2022/04/11 09:11:31;;;;;;;7.47;1.52;;;;;;;10.64;83.38;101994.66;4878323;29;20062;-79
2022/04/11 09:14:03;;;;;;;2.80;1.30;;;;;;;10.72;83.91;101991.34;4909325;29;20062;-79
2022/04/11 09:16:52;;;;;;;3.15;1.52;;;;;;;10.75;78.20;101993.16;4926363;29;20052;-79
2022/04/11 09:19:27;;;;;;;5.65;1.88;;;;;;;10.77;82.57;101994.06;4894312;29;20502;-80
2022/04/11 09:22:29;;;;;;;3.60;2.10;;;;;;;10.75;81.04;101985.25;4888389;29;20170;-81
2022/04/11 09:25:10;;;;;;;5.70;1.60;;;;;;;10.68;79.06;101988.59;4892426;29;20501;-80
2022/04/11 09:27:40;;;;;;;3.80;1.42;;;;;;;10.62;80.76;101980.56;4901316;29;20055;-79
2022/04/11 09:30:31;;;;;;;4.60;1.77;;;;;;;10.64;79.70;101981.50;4899209;29;20063;-79
2022/04/11 09:33:08;;;;;;;4.15;1.30;;;;;;;10.65;79.14;101975.38;4880393;29;20050;-78
2022/04/11 09:35:40;;;;;;;2.40;1.23;;;;;;;10.69;80.31;101986.00;4900794;29;20051;-80
2022/04/11 09:38:13;;;;;;;1.58;1.27;;;;;;;10.69;79.89;101990.38;4912333;29;20090;-81
2022/04/11 09:40:52;;;;;;;6.82;1.75;;;;;;;10.68;79.56;101980.69;4932430;29;20054;-80
2022/04/11 09:43:29;;;;;;;3.67;1.70;;;;;;;10.69;79.21;101980.72;4923660;29;20459;-79
2022/04/11 09:45:59;;;;;;;;;;;;;;;10.70;75.39;101976.38;4948434;29;20062;-80
2022/04/11 09:48:32;;;;;;;;;;;;;;;10.73;75.03;101977.28;4911323;29;19927;-79
2022/04/11 09:51:15;;;;;;;9.68;1.58;;;;;;;10.74;79.86;101975.56;4949837;28;20026;-80
2022/04/11 09:53:45;;;;;;;8.18;2.17;;;;;;;10.82;80.40;101965.16;4953502;28;20059;-80
2022/04/11 09:56:17;;;;;;;9.45;1.90;;;;;;;10.77;78.44;101972.09;4932680;28;20051;-80
2022/04/11 09:58:47;;;;;;;8.02;1.90;;;;;;;10.65;77.83;101975.38;4950499;28;20051;-81
2022/04/11 10:01:16;;;;;;;3.38;1.38;;;;;;;10.60;77.85;101963.84;4927456;28;20086;-80
2022/04/11 10:03:46;;;;;;;3.70;1.77;;;;;;;10.64;79.63;101968.31;4927239;28;20051;-79
2022/04/11 10:06:14;;;;;;;8.90;1.98;;;;;;;10.61;78.29;101961.25;4936642;28;20627;-78
2022/04/11 10:08:43;;;;;;;3.42;1.58;;;;;;;10.64;76.96;101961.31;4937621;28;20059;-81
2022/04/11 10:11:17;;;;;;;2.63;1.60;;;;;;;10.65;76.86;101959.56;4928856;29;20050;-80
2022/04/11 10:13:48;;;;;;;2.28;1.38;;;;;;;10.70;77.60;101957.91;4927095;28;20051;-80
2022/04/11 10:16:17;;;;;;;;;;;;;;;10.67;69.22;101956.09;4926110;29;20047;-80
2022/04/11 10:18:47;;;;;;;2.10;1.60;;;;;;;10.61;75.21;101952.44;4910003;29;19973;-79
2022/04/11 10:21:17;;;;;;;4.45;1.58;;;;;;;10.59;75.69;101949.78;4893126;29;20870;-78
2022/04/11 10:24:10;;;;;;;9.20;1.77;;;;;;;10.66;75.20;101949.06;4926829;28;20047;-79
2022/04/11 10:26:55;;;;;;;4.78;1.40;;;;;;;10.76;74.08;101939.56;4944987;28;20070;-79
2022/04/11 10:29:36;;;;;;;5.18;1.48;;;;;;;10.81;73.58;101937.00;4934118;28;20050;-80
2022/04/11 10:32:14;;;;;;;5.07;1.80;;;;;;;10.87;76.14;101939.78;4929235;29;20043;-81
2022/04/11 10:34:46;;;;;;;7.40;1.60;;;;;;;10.95;75.44;101935.53;4921193;28;20412;-80
2022/04/11 10:37:16;;;;;;;3.28;1.63;;;;;;;10.99;75.31;101936.50;4918695;29;20062;-80
2022/04/11 10:39:46;;;;;;;3.75;2.10;;;;;;;11.03;73.28;101933.94;4938849;28;20053;-80
2022/04/11 10:42:23;;;;;;;3.42;1.45;;;;;;;11.00;72.13;101935.63;4944932;28;20047;-79
2022/04/11 10:44:56;;;;;;;6.03;1.70;;;;;;;10.97;72.73;101940.84;4933205;28;20056;-80
2022/04/11 10:47:31;;;;;;;7.15;1.40;;;;;;;10.98;72.44;101940.84;4944370;29;20124;-81
2022/04/11 10:50:04;;;;;;;2.97;1.50;;;;;;;10.95;72.08;101937.31;4947446;28;20051;-80
2022/04/11 10:52:52;;;;;;;7.60;1.50;;;;;;;10.97;71.36;101932.94;4951941;28;20051;-80
2022/04/11 10:55:22;;;;;;;3.70;1.60;;;;;;;11.00;72.61;101938.25;4922172;28;20055;-80
2022/04/11 10:58:00;;;;;;;3.05;1.60;;;;;;;11.10;72.38;101932.31;4914692;29;20078;-82
2022/04/11 11:00:33;;;;;;;3.17;1.10;;;;;;;11.15;72.26;101932.38;4941082;28;20062;-82
2022/04/11 11:03:04;;;;;;;5.45;1.50;;;;;;;11.23;72.56;101930.78;4971978;28;20051;-81
2022/04/11 11:05:37;;;;;;;4.72;1.50;;;;;;;11.35;72.49;101930.09;4912962;29;20594;-80
2022/04/11 11:08:09;;;;;;;4.72;1.60;;;;;;;11.40;70.02;101918.75;4925331;29;20070;-81
2022/04/11 11:10:57;;;;;;;3.55;1.52;;;;;;;11.44;70.01;101915.31;4942800;28;20054;-81
2022/04/11 11:13:35;;;;;;;6.22;1.50;;;;;;;11.50;69.11;101911.88;4966415;28;20050;-81
2022/04/11 11:16:06;;;;;;;;;;;;;;;11.52;65.62;101913.69;4945107;28;20508;-80
2022/04/11 11:18:50;;;;;;;4.53;1.73;;;;;;;11.57;69.64;101916.41;4925419;29;19954;-81
2022/04/11 11:21:31;;;;;;;2.35;1.70;;;;;;;11.58;67.16;101914.66;4928071;28;20051;-81
2022/04/11 11:24:04;;;;;;;4.60;1.90;;;;;;;11.56;69.30;101914.63;4932335;28;20166;-82
2022/04/11 11:26:40;;;;;;;4.15;1.98;;;;;;;11.61;70.37;101910.31;4938693;28;20501;-81
2022/04/11 11:29:14;;;;;;;3.05;1.88;;;;;;;11.73;71.25;101916.66;4961272;28;20047;-80
2022/04/11 11:31:44;;;;;;;6.15;1.60;;;;;;;11.82;70.86;101912.38;4932705;28;20086;-81
2022/04/11 11:34:15;;;;;;;6.83;1.80;;;;;;;11.94;70.88;101906.41;4947416;29;20058;-79
2022/04/11 11:36:44;;;;;;;4.30;1.92;;;;;;;11.99;68.80;101912.66;4918772;29;20044;-81
2022/04/11 11:39:21;;;;;;;3.67;1.73;;;;;;;11.98;67.43;101910.88;4932486;28;20047;-80
2022/04/11 11:41:56;;;;;;;3.70;1.80;;;;;;;11.98;65.49;101910.88;4933456;28;20043;-80
2022/04/11 11:44:25;;;;;;;5.35;2.13;;;;;;;11.97;68.13;101900.31;4935623;29;20066;-80
2022/04/11 11:46:53;;;;;;;6.93;2.25;;;;;;;12.04;68.71;101905.72;4932856;28;20066;-80